createdAt,value
2017-12-23T00:02:12.942Z,16.20
2017-12-23T00:04:39.817Z,15.60
2017-12-23T00:07:06.780Z,15.57
2017-12-23T00:09:33.677Z,18.57
2017-12-23T00:12:00.629Z,16.37
2017-12-23T00:14:27.594Z,16.27
2017-12-23T00:16:54.457Z,15.50
2017-12-23T00:19:21.407Z,14.00
2017-12-23T00:21:48.287Z,12.10
2017-12-23T00:24:15.232Z,16.53
2017-12-23T00:26:42.112Z,15.07
2017-12-23T00:29:09.148Z,14.27
2017-12-23T00:31:36.001Z,15.07
2017-12-23T00:34:02.957Z,16.07
2017-12-23T00:36:29.859Z,15.23
2017-12-23T00:38:56.803Z,22.07
2017-12-23T00:41:23.732Z,15.03
2017-12-23T00:43:50.587Z,34.87
2017-12-23T00:46:17.512Z,42.83
2017-12-23T00:48:45.196Z,26.73
2017-12-23T00:51:12.209Z,32.73
2017-12-23T00:53:39.144Z,11.40
2017-12-23T00:56:06.027Z,56.87
2017-12-23T00:58:32.987Z,43.57
2017-12-23T01:00:59.832Z,25.83
2017-12-23T01:03:26.686Z,14.50
2017-12-23T01:05:53.668Z,21.97
2017-12-23T01:08:20.653Z,22.03
2017-12-23T01:10:47.652Z,26.87
2017-12-23T01:13:14.528Z,41.67
2017-12-23T01:15:41.405Z,31.60
2017-12-23T01:18:08.338Z,18.47
2017-12-23T01:20:35.246Z,17.33
2017-12-23T01:23:02.163Z,45.30
2017-12-23T01:25:29.052Z,55.23
2017-12-23T01:27:56.006Z,34.00
2017-12-23T01:30:22.942Z,40.60
2017-12-23T01:32:49.870Z,29.27
2017-12-23T01:35:16.725Z,47.30
2017-12-23T01:37:43.655Z,46.53
2017-12-23T01:40:10.587Z,78.43
2017-12-23T01:42:37.432Z,45.90
2017-12-23T01:45:04.346Z,25.23
2017-12-23T01:47:32.937Z,51.90
2017-12-23T01:50:00.619Z,37.17
2017-12-23T01:52:27.543Z,67.80
2017-12-23T01:54:54.427Z,29.50
2017-12-23T01:57:21.391Z,13.27
2017-12-23T01:59:48.332Z,23.63
2017-12-23T02:02:15.230Z,21.90
2017-12-23T02:04:42.840Z,51.83
2017-12-23T02:07:09.751Z,19.57
2017-12-23T02:09:41.393Z,23.00
2017-12-23T02:12:09.228Z,9.00
2017-12-23T02:14:36.083Z,14.53
2017-12-23T02:17:03.010Z,10.00
2017-12-23T02:19:29.863Z,16.43
2017-12-23T02:21:57.048Z,31.27
2017-12-23T02:24:24.029Z,16.00
2017-12-23T02:26:50.887Z,10.80
2017-12-23T02:29:17.760Z,7.87
2017-12-23T02:31:44.748Z,7.10
2017-12-23T02:34:11.611Z,10.03
2017-12-23T02:36:38.615Z,8.67
2017-12-23T02:39:05.523Z,7.20
2017-12-23T02:41:32.459Z,7.60
2017-12-23T02:43:59.395Z,8.53
2017-12-23T02:46:26.276Z,6.73
2017-12-23T02:48:53.240Z,7.97
2017-12-23T02:51:20.131Z,9.07
2017-12-23T02:53:46.999Z,8.20
2017-12-23T02:56:13.960Z,6.53
2017-12-23T02:58:40.808Z,7.50
2017-12-23T03:01:07.762Z,7.80
2017-12-23T03:03:34.642Z,7.10
2017-12-23T03:06:01.587Z,6.43
2017-12-23T03:08:28.548Z,8.40
2017-12-23T03:10:55.423Z,7.23
2017-12-23T03:13:22.375Z,8.83
2017-12-23T03:15:49.234Z,8.70
2017-12-23T03:18:16.150Z,8.80
2017-12-23T03:20:43.111Z,8.90
2017-12-23T03:23:09.975Z,11.87
2017-12-23T03:25:36.835Z,10.27
2017-12-23T03:28:04.516Z,9.73
2017-12-23T03:30:31.413Z,8.73
2017-12-23T03:32:58.300Z,9.20
2017-12-23T03:35:25.991Z,9.50
2017-12-23T03:37:52.919Z,9.83
2017-12-23T03:40:19.759Z,10.47
2017-12-23T03:42:46.708Z,8.10
2017-12-23T03:45:13.643Z,8.10
2017-12-23T03:47:41.247Z,7.77
2017-12-23T03:50:08.182Z,7.03
2017-12-23T03:52:35.052Z,8.67
2017-12-23T03:55:01.985Z,7.80
2017-12-23T03:57:28.922Z,8.10
2017-12-23T03:59:55.793Z,7.50
2017-12-23T04:02:22.710Z,10.13
2017-12-23T04:04:49.627Z,10.33
2017-12-23T04:07:16.496Z,11.37
2017-12-23T04:09:43.415Z,10.50
2017-12-23T04:12:10.331Z,11.57
2017-12-23T04:14:37.251Z,11.60
2017-12-23T04:17:04.117Z,14.43
2017-12-23T04:19:31.007Z,11.50
2017-12-23T04:21:57.947Z,12.43
2017-12-23T04:24:24.816Z,12.77
2017-12-23T04:26:51.671Z,12.30
2017-12-23T04:29:18.628Z,15.10
2017-12-23T04:31:45.568Z,14.07
2017-12-23T04:34:13.067Z,14.90
2017-12-23T04:36:39.967Z,15.30
2017-12-23T04:39:06.842Z,16.53
2017-12-23T04:41:33.823Z,14.57
2017-12-23T04:44:00.673Z,19.63
2017-12-23T04:46:27.619Z,16.33
2017-12-23T04:48:54.518Z,16.63
2017-12-23T04:51:21.476Z,15.30
2017-12-23T04:53:48.344Z,14.70
2017-12-23T04:56:15.256Z,17.63
2017-12-23T04:58:42.132Z,21.40
2017-12-23T05:01:09.059Z,15.23
2017-12-23T05:03:35.924Z,15.43
2017-12-23T05:06:02.788Z,16.00
2017-12-23T05:08:29.706Z,14.77
2017-12-23T05:10:57.359Z,17.30
2017-12-23T05:13:24.222Z,13.73
2017-12-23T05:15:51.172Z,16.17
2017-12-23T05:18:18.031Z,18.10
2017-12-23T05:20:44.952Z,15.63
2017-12-23T05:23:11.945Z,16.03
2017-12-23T05:25:39.428Z,17.53
2017-12-23T05:28:21.494Z,17.40
2017-12-23T05:30:50.142Z,14.57
2017-12-23T05:33:17.000Z,15.07
2017-12-23T05:35:43.875Z,20.03
2017-12-23T05:38:10.798Z,16.83
2017-12-23T05:40:38.679Z,21.10
2017-12-23T05:43:05.587Z,17.17
2017-12-23T05:45:32.576Z,17.73
2017-12-23T05:47:59.447Z,18.53
2017-12-23T05:50:26.304Z,17.30
2017-12-23T05:52:53.296Z,14.70
2017-12-23T05:55:20.223Z,18.20
2017-12-23T05:57:47.153Z,17.47
2017-12-23T06:00:14.094Z,13.80
2017-12-23T06:02:40.970Z,14.63
2017-12-23T06:05:07.904Z,16.03
2017-12-23T06:07:34.775Z,15.07
2017-12-23T06:10:01.739Z,20.37
2017-12-23T06:12:28.607Z,13.40
2017-12-23T06:14:55.553Z,16.03
2017-12-23T06:17:22.423Z,17.37
2017-12-23T06:19:49.360Z,14.10
2017-12-23T06:22:16.302Z,13.20
2017-12-23T06:24:43.168Z,15.10
2017-12-23T06:27:10.115Z,13.60
2017-12-23T06:29:37.047Z,14.73
2017-12-23T06:32:03.981Z,15.07
2017-12-23T06:34:30.866Z,16.63
2017-12-23T06:36:57.703Z,16.30
2017-12-23T06:39:24.633Z,17.60
2017-12-23T06:41:51.484Z,16.07
2017-12-23T06:44:18.451Z,14.50
2017-12-23T06:46:45.396Z,15.37
2017-12-23T06:49:12.283Z,19.13
2017-12-23T06:51:39.212Z,17.37
2017-12-23T06:54:06.154Z,16.07
2017-12-23T06:56:33.091Z,17.50
2017-12-23T06:58:59.965Z,19.10
2017-12-23T07:01:26.841Z,24.33
2017-12-23T07:03:53.812Z,21.30
2017-12-23T07:06:20.672Z,18.40
2017-12-23T07:08:47.573Z,15.60
2017-12-23T07:11:14.509Z,16.10
2017-12-23T07:13:42.230Z,18.37
2017-12-23T07:16:09.175Z,15.90
2017-12-23T07:18:36.025Z,15.97
2017-12-23T07:21:02.952Z,17.57
2017-12-23T07:23:29.812Z,18.50
2017-12-23T07:25:56.731Z,18.53
2017-12-23T07:28:23.741Z,18.80
2017-12-23T07:30:50.661Z,21.13
2017-12-23T07:33:17.524Z,22.77
2017-12-23T07:35:44.468Z,22.07
2017-12-23T07:38:11.372Z,20.30
2017-12-23T07:40:38.331Z,22.47
2017-12-23T07:43:05.180Z,22.23
2017-12-23T07:45:32.123Z,26.63
2017-12-23T07:47:59.021Z,24.03
2017-12-23T07:50:25.939Z,19.60
2017-12-23T07:52:52.896Z,18.73
2017-12-23T07:55:19.870Z,20.70
2017-12-23T07:57:46.834Z,19.63
2017-12-23T08:00:13.724Z,19.63
2017-12-23T08:02:41.517Z,18.73
2017-12-23T08:05:10.853Z,17.53
2017-12-23T08:07:42.119Z,18.20
2017-12-23T08:10:12.444Z,18.67
2017-12-23T08:12:42.876Z,22.03
2017-12-23T08:15:11.352Z,15.77
2017-12-23T08:17:39.119Z,14.17
2017-12-23T08:20:07.535Z,15.73
2017-12-23T08:22:39.434Z,17.47
2017-12-23T08:25:12.885Z,19.70
2017-12-23T08:27:40.691Z,16.13
2017-12-23T08:30:07.596Z,16.27
2017-12-23T08:32:35.625Z,19.60
2017-12-23T08:35:02.530Z,14.97
2017-12-23T08:37:30.651Z,13.97
2017-12-23T08:40:08.360Z,16.60
2017-12-23T08:42:47.812Z,13.43
2017-12-23T08:45:15.679Z,14.50
2017-12-23T08:47:42.556Z,16.73
2017-12-23T08:50:11.757Z,15.43
2017-12-23T08:52:38.715Z,15.20
2017-12-23T08:55:06.423Z,14.63
2017-12-23T08:57:33.315Z,14.83
2017-12-23T09:00:00.261Z,12.33
2017-12-23T09:02:27.209Z,12.23
2017-12-23T09:04:54.072Z,12.10
2017-12-23T09:07:21.008Z,13.50
2017-12-23T09:09:50.207Z,12.17
2017-12-23T09:12:17.092Z,11.70
2017-12-23T09:14:43.951Z,11.00
2017-12-23T09:17:10.868Z,12.43
2017-12-23T09:19:37.769Z,12.87
2017-12-23T09:22:04.725Z,11.47
2017-12-23T09:24:31.579Z,13.87
2017-12-23T09:26:58.517Z,15.57
2017-12-23T09:29:25.475Z,13.57
2017-12-23T09:31:52.404Z,13.43
2017-12-23T09:34:19.355Z,20.07
2017-12-23T09:36:47.033Z,12.60
2017-12-23T09:39:16.470Z,12.70
2017-12-23T09:41:43.416Z,12.93
2017-12-23T09:44:19.518Z,12.03
2017-12-23T09:46:48.064Z,13.23
2017-12-23T09:49:15.057Z,11.57
2017-12-23T09:51:42.728Z,14.03
2017-12-23T09:54:13.742Z,10.17
2017-12-23T09:56:45.363Z,10.90
2017-12-23T09:59:20.495Z,14.13
2017-12-23T10:01:52.865Z,14.80
2017-12-23T10:04:20.176Z,13.57
2017-12-23T10:06:52.066Z,11.70
2017-12-23T10:09:20.929Z,10.27
2017-12-23T10:11:49.269Z,11.70
2017-12-23T10:14:20.824Z,11.70
2017-12-23T10:16:51.491Z,10.70
2017-12-23T10:19:20.011Z,12.30
2017-12-23T10:21:52.364Z,9.83
2017-12-23T10:24:25.194Z,10.07
2017-12-23T10:26:57.861Z,10.00
2017-12-23T10:29:26.934Z,10.80
2017-12-23T10:31:53.942Z,9.77
2017-12-23T10:34:26.309Z,10.43
2017-12-23T10:36:53.315Z,11.03
2017-12-23T10:39:29.823Z,11.20
2017-12-23T10:41:57.691Z,9.53
2017-12-23T10:44:29.271Z,13.07
2017-12-23T10:47:02.279Z,14.23
2017-12-23T10:49:31.299Z,11.90
2017-12-23T10:52:08.647Z,12.70
2017-12-23T10:54:47.464Z,11.77
2017-12-23T10:57:20.111Z,10.90
2017-12-23T10:59:52.603Z,10.63
2017-12-23T11:02:20.580Z,11.97
2017-12-23T11:04:48.400Z,10.63
2017-12-23T11:07:24.630Z,11.90
2017-12-23T11:12:32.083Z,11.30
2017-12-23T11:15:01.869Z,11.70
2017-12-23T11:17:33.194Z,13.00
2017-12-23T11:20:01.202Z,10.70
2017-12-23T11:22:28.159Z,13.60
2017-12-23T11:24:57.387Z,10.90
2017-12-23T11:27:24.447Z,12.97
2017-12-23T11:29:51.305Z,15.53
2017-12-23T11:32:20.656Z,13.47
2017-12-23T11:34:47.926Z,12.60
2017-12-23T11:37:21.540Z,15.43
2017-12-23T11:39:48.939Z,14.37
2017-12-23T11:42:18.025Z,13.07
2017-12-23T11:44:45.726Z,14.17
2017-12-23T11:47:20.364Z,12.93
2017-12-23T11:49:57.854Z,12.93
2017-12-23T11:52:38.668Z,13.67
2017-12-23T11:58:04.111Z,14.00
2017-12-23T12:03:27.142Z,16.57
2017-12-23T12:06:05.593Z,13.17
2017-12-23T12:11:33.145Z,12.40
2017-12-23T12:14:15.673Z,12.67
2017-12-23T12:16:58.521Z,13.63
2017-12-23T12:19:39.603Z,12.60
2017-12-23T12:25:03.365Z,15.33
2017-12-23T12:27:45.658Z,10.93
2017-12-23T12:30:26.186Z,14.13
2017-12-23T12:38:31.917Z,12.73
2017-12-23T12:43:59.134Z,14.53
2017-12-23T12:46:40.554Z,17.10
2017-12-23T12:49:23.330Z,13.00
2017-12-23T12:52:06.940Z,14.63
2017-12-23T12:54:47.645Z,13.10
2017-12-23T12:57:30.337Z,12.63
2017-12-23T13:00:09.922Z,12.50
2017-12-23T13:05:37.161Z,11.20
2017-12-23T13:08:20.173Z,14.20
2017-12-23T13:13:44.789Z,11.73
2017-12-23T13:19:08.289Z,11.40
2017-12-23T13:24:30.615Z,9.43
2017-12-23T13:27:12.255Z,9.37
2017-12-23T13:29:57.375Z,10.20
2017-12-23T13:32:39.074Z,9.13
2017-12-23T13:35:23.980Z,7.10
2017-12-23T13:38:07.935Z,9.17
2017-12-23T13:40:50.349Z,7.97
2017-12-23T13:43:34.953Z,9.70
2017-12-23T13:46:14.404Z,6.60
2017-12-23T13:48:57.519Z,8.50
2017-12-23T13:57:07.597Z,8.70
2017-12-23T13:59:51.483Z,8.90
2017-12-23T14:02:34.129Z,6.90
2017-12-23T14:07:53.822Z,5.53
2017-12-23T14:10:32.267Z,7.20
2017-12-23T14:13:09.771Z,8.20
2017-12-23T14:15:49.802Z,6.10
2017-12-23T14:18:30.706Z,7.63
2017-12-23T14:21:09.719Z,7.80
2017-12-23T14:23:51.463Z,8.23
2017-12-23T14:26:32.714Z,5.83
2017-12-23T14:29:11.181Z,8.10
2017-12-23T14:31:50.595Z,8.80
2017-12-23T14:34:31.719Z,8.60
2017-12-23T14:37:04.751Z,8.30
2017-12-23T14:39:45.247Z,8.97
2017-12-23T14:42:22.873Z,9.57
2017-12-23T14:45:02.965Z,9.80
2017-12-23T14:47:41.215Z,10.87
2017-12-23T14:50:21.291Z,6.80
2017-12-23T14:53:00.424Z,10.00
2017-12-23T14:55:38.800Z,8.87
2017-12-23T14:58:17.781Z,7.40
2017-12-23T15:00:56.760Z,8.20
2017-12-23T15:03:34.996Z,7.40
2017-12-23T15:06:14.084Z,9.83
2017-12-23T15:08:52.389Z,9.60
2017-12-23T15:11:31.471Z,7.60
2017-12-23T15:14:09.772Z,5.90
2017-12-23T15:16:48.526Z,8.77
2017-12-23T15:19:26.840Z,7.40
2017-12-23T15:22:05.917Z,10.07
2017-12-23T15:24:45.339Z,7.37
2017-12-23T15:27:24.315Z,6.67
2017-12-23T15:30:03.044Z,8.20
2017-12-23T15:35:24.103Z,7.77
2017-12-23T15:38:03.060Z,7.27
2017-12-23T15:40:41.341Z,6.27
2017-12-23T15:43:20.713Z,9.63
2017-12-23T15:45:57.343Z,7.97
2017-12-23T15:48:37.142Z,9.97
2017-12-23T15:53:59.173Z,8.23
2017-12-23T15:56:36.990Z,8.90
2017-12-23T16:02:06.286Z,7.57
2017-12-23T16:04:47.367Z,12.03
2017-12-23T16:07:24.196Z,9.73
2017-12-23T16:10:04.808Z,8.03
2017-12-23T16:12:42.989Z,10.40
2017-12-23T16:15:18.384Z,11.67
2017-12-23T16:17:56.490Z,8.70
2017-12-23T16:20:36.636Z,8.70
2017-12-23T16:23:16.771Z,8.97
2017-12-23T16:25:57.965Z,8.40
2017-12-23T16:28:39.275Z,9.30
2017-12-23T16:31:17.042Z,8.67
2017-12-23T16:36:39.000Z,7.50
2017-12-23T16:39:17.581Z,10.37
2017-12-23T16:42:00.064Z,8.03
2017-12-23T16:47:29.349Z,9.33
2017-12-23T16:50:10.088Z,7.63
2017-12-23T16:52:51.601Z,6.70
2017-12-23T16:55:32.571Z,5.97
2017-12-23T16:58:14.092Z,5.93
2017-12-23T17:00:53.268Z,4.87
2017-12-23T17:06:21.964Z,7.97
2017-12-23T17:09:06.596Z,6.07
2017-12-23T17:11:47.991Z,4.73
2017-12-23T17:14:29.960Z,5.70
2017-12-23T17:17:12.226Z,6.33
2017-12-23T17:19:52.738Z,4.87
2017-12-23T17:22:34.544Z,8.00
2017-12-23T17:25:16.717Z,16.00
2017-12-23T17:30:45.368Z,6.50
2017-12-23T17:33:26.596Z,6.57
2017-12-23T17:36:06.021Z,6.30
2017-12-23T17:38:46.820Z,8.07
2017-12-23T17:41:28.395Z,8.00
2017-12-23T17:49:48.426Z,10.03
2017-12-23T17:52:35.363Z,9.60
2017-12-23T17:55:18.198Z,7.27
2017-12-23T17:57:58.623Z,7.73
2017-12-23T18:03:26.517Z,10.63
2017-12-23T18:06:10.647Z,7.87
2017-12-23T18:14:16.744Z,10.47
2017-12-23T18:16:56.510Z,7.30
2017-12-23T18:19:36.176Z,9.13
2017-12-23T18:22:19.096Z,8.97
2017-12-23T18:24:59.471Z,7.90
2017-12-23T18:27:42.651Z,8.27
2017-12-23T18:30:22.330Z,8.60
2017-12-23T18:33:02.969Z,9.20
2017-12-23T18:35:44.798Z,8.17
2017-12-23T18:38:26.250Z,9.23
2017-12-23T18:41:06.596Z,9.30
2017-12-23T18:43:46.814Z,9.13
2017-12-23T18:46:26.505Z,9.73
2017-12-23T18:49:05.674Z,8.17
2017-12-23T18:51:33.616Z,8.77
2017-12-23T18:54:00.477Z,10.50
2017-12-23T18:56:27.452Z,8.90
2017-12-23T18:58:54.315Z,11.93
2017-12-23T19:01:21.254Z,10.53
2017-12-23T19:03:49.180Z,8.93
2017-12-23T19:06:19.470Z,8.93
2017-12-23T19:08:46.504Z,9.33
2017-12-23T19:11:13.455Z,10.77
2017-12-23T19:13:50.381Z,9.57
2017-12-23T19:16:38.420Z,10.20
2017-12-23T19:19:18.377Z,9.10
2017-12-23T19:21:59.689Z,8.70
2017-12-23T19:24:38.896Z,9.40
2017-12-23T19:30:00.476Z,9.43
2017-12-23T19:32:42.240Z,8.70
2017-12-23T19:35:22.240Z,8.53
2017-12-23T19:38:03.836Z,8.93
2017-12-23T19:40:47.591Z,8.70
2017-12-23T19:43:29.858Z,8.13
2017-12-23T19:46:09.783Z,8.77
2017-12-23T19:48:50.279Z,9.10
2017-12-23T19:51:31.197Z,7.73
2017-12-23T19:54:10.868Z,11.80
2017-12-23T19:56:51.566Z,8.97
2017-12-23T19:59:20.263Z,8.53
2017-12-23T20:01:48.461Z,9.13
2017-12-23T20:04:18.496Z,8.40
2017-12-23T20:06:47.797Z,8.97
2017-12-23T20:09:14.808Z,8.20
2017-12-23T20:11:41.676Z,8.47
2017-12-23T20:14:22.013Z,7.70
2017-12-23T20:16:49.485Z,8.20
2017-12-23T20:19:16.381Z,7.93
2017-12-23T20:21:43.219Z,7.50
2017-12-23T20:24:10.167Z,9.33
2017-12-23T20:26:37.122Z,9.37
2017-12-23T20:29:04.100Z,7.20
2017-12-23T20:31:46.461Z,7.27
2017-12-23T20:34:27.295Z,9.90
2017-12-23T20:37:02.929Z,9.00
2017-12-23T20:39:30.312Z,9.60
2017-12-23T20:42:06.837Z,8.63
2017-12-23T20:44:36.279Z,8.50
2017-12-23T20:47:09.087Z,7.43
2017-12-23T20:49:36.331Z,9.50
2017-12-23T20:52:04.355Z,8.37
2017-12-23T20:54:32.888Z,8.10
2017-12-23T20:57:01.202Z,8.73
2017-12-23T20:59:28.352Z,7.20
2017-12-23T21:01:57.069Z,6.57
2017-12-23T21:04:33.492Z,6.20
2017-12-23T21:07:00.772Z,6.43
2017-12-23T21:09:30.244Z,7.03
2017-12-23T21:12:04.284Z,5.67
2017-12-23T21:14:35.327Z,5.20
2017-12-23T21:17:10.663Z,8.10
2017-12-23T21:19:42.023Z,6.50
2017-12-23T21:22:14.584Z,6.50
2017-12-23T21:24:42.232Z,5.33
2017-12-23T21:27:20.541Z,5.57
2017-12-23T21:29:48.177Z,5.40
2017-12-23T21:32:15.124Z,4.80
2017-12-23T21:34:42.863Z,4.00
2017-12-23T21:37:11.636Z,5.33
2017-12-23T21:39:40.312Z,4.50
2017-12-23T21:42:07.882Z,4.40
2017-12-23T21:44:36.112Z,4.77
2017-12-23T21:47:03.126Z,5.80
2017-12-23T21:49:37.054Z,6.20
2017-12-23T21:52:05.448Z,5.47
2017-12-23T21:54:33.479Z,4.80
2017-12-23T21:57:03.060Z,5.70
2017-12-23T21:59:31.211Z,4.77
2017-12-23T22:02:01.757Z,5.07
2017-12-23T22:04:32.300Z,10.83
2017-12-23T22:07:00.877Z,5.63
2017-12-23T22:09:28.819Z,5.80
2017-12-23T22:11:56.971Z,4.57
2017-12-23T22:14:34.877Z,5.33
2017-12-23T22:17:08.056Z,4.47
2017-12-23T22:19:47.830Z,5.53
2017-12-23T22:22:15.783Z,4.13
2017-12-23T22:24:45.369Z,3.40
2017-12-23T22:27:13.024Z,5.30
2017-12-23T22:29:40.190Z,4.60
2017-12-23T22:32:08.290Z,3.97
2017-12-23T22:34:36.688Z,3.50
2017-12-23T22:37:10.538Z,4.03
2017-12-23T22:39:38.708Z,3.83
2017-12-23T22:42:07.094Z,3.77
2017-12-23T22:44:36.807Z,3.60
2017-12-23T22:47:06.751Z,5.50
2017-12-23T22:49:36.280Z,4.17
2017-12-23T22:52:05.999Z,14.30
2017-12-23T22:54:34.960Z,5.70
2017-12-23T22:57:04.518Z,3.40
2017-12-23T22:59:36.680Z,2.80
2017-12-23T23:02:10.369Z,3.80
2017-12-23T23:04:39.408Z,3.90
2017-12-23T23:07:13.421Z,3.23
2017-12-23T23:09:41.511Z,3.50
2017-12-23T23:12:12.223Z,3.87
2017-12-23T23:14:42.467Z,3.77
2017-12-23T23:17:11.861Z,3.17
2017-12-23T23:19:41.659Z,3.43
2017-12-23T23:22:11.846Z,3.87
2017-12-23T23:24:40.179Z,3.47
2017-12-23T23:27:08.592Z,3.10
2017-12-23T23:29:35.975Z,3.60
2017-12-23T23:32:04.325Z,2.80
2017-12-23T23:34:31.695Z,4.00
2017-12-23T23:37:00.928Z,4.37
2017-12-23T23:39:27.892Z,3.60
2017-12-23T23:41:54.802Z,3.37
2017-12-23T23:44:21.659Z,3.23
2017-12-23T23:46:48.588Z,3.20
2017-12-23T23:49:15.472Z,4.00
2017-12-23T23:51:43.444Z,3.30
2017-12-23T23:54:12.214Z,3.37
2017-12-23T23:56:40.531Z,3.30
2017-12-23T23:59:07.451Z,2.83
